Calafate, Argentina
Current Conditions -  °F | °C
As of 12:00 AM on Wednesday 26 Nov 2014 (Local Time) from SAWG Reporting Station
Clear Clear  
Wind Chill: 39°   Ceiling: Unl
Heat Index: 48°   Visibility: 6mi
Dew Point: 34°   Wind: 32mph
Humidity: 57%   Direction: 270°W
Pressure: 29.5"   Gusts: 44mph
Location:  50.33°S, 72.27°W
Report Text: SAWG 260300Z 27028G38KT CAVOK 09/01 Q0999
Loading
Personal Weather Stations






























Interactive Weather Map New forecast layout! Learn more

10-Day Weather Forecast

Advertisements
Track Severe Weather on mobile